sensor_id;sensor_type;location;lat;lon;timestamp;P1;durP1;ratioP1;P2;durP2;ratioP2
60472;SDS011;46318;52.716;6.444;2023-05-23T00:00:42;27.13;;;21.20;;
60472;SDS011;46318;52.716;6.444;2023-05-23T00:03:08;29.67;;;21.48;;
60472;SDS011;46318;52.716;6.444;2023-05-23T00:05:35;29.23;;;20.67;;
60472;SDS011;46318;52.716;6.444;2023-05-23T00:08:01;25.48;;;20.52;;
60472;SDS011;46318;52.716;6.444;2023-05-23T00:10:26;29.00;;;20.45;;
60472;SDS011;46318;52.716;6.444;2023-05-23T00:12:52;24.85;;;19.38;;
60472;SDS011;46318;52.716;6.444;2023-05-23T00:15:19;24.42;;;19.13;;
60472;SDS011;46318;52.716;6.444;2023-05-23T00:17:45;24.23;;;19.00;;
60472;SDS011;46318;52.716;6.444;2023-05-23T00:20:11;24.15;;;17.63;;
60472;SDS011;46318;52.716;6.444;2023-05-23T00:22:37;21.58;;;16.40;;
60472;SDS011;46318;52.716;6.444;2023-05-23T00:25:10;21.15;;;15.55;;
60472;SDS011;46318;52.716;6.444;2023-05-23T00:27:36;22.35;;;17.48;;
60472;SDS011;46318;52.716;6.444;2023-05-23T00:30:02;23.90;;;16.88;;
60472;SDS011;46318;52.716;6.444;2023-05-23T00:32:28;19.58;;;16.95;;
60472;SDS011;46318;52.716;6.444;2023-05-23T00:34:54;21.60;;;15.73;;
60472;SDS011;46318;52.716;6.444;2023-05-23T00:37:22;26.17;;;17.65;;
60472;SDS011;46318;52.716;6.444;2023-05-23T00:39:48;27.55;;;18.15;;
60472;SDS011;46318;52.716;6.444;2023-05-23T00:42:13;26.70;;;18.48;;
60472;SDS011;46318;52.716;6.444;2023-05-23T00:44:39;31.13;;;19.42;;
60472;SDS011;46318;52.716;6.444;2023-05-23T00:47:05;36.13;;;20.50;;
60472;SDS011;46318;52.716;6.444;2023-05-23T00:49:32;31.10;;;19.25;;
60472;SDS011;46318;52.716;6.444;2023-05-23T00:51:59;30.77;;;20.10;;
60472;SDS011;46318;52.716;6.444;2023-05-23T00:54:27;28.80;;;20.38;;
60472;SDS011;46318;52.716;6.444;2023-05-23T00:56:58;28.80;;;18.83;;
60472;SDS011;46318;52.716;6.444;2023-05-23T00:59:24;29.25;;;18.90;;
60472;SDS011;46318;52.716;6.444;2023-05-23T01:01:51;29.80;;;18.65;;
60472;SDS011;46318;52.716;6.444;2023-05-23T01:04:20;25.52;;;18.10;;
60472;SDS011;46318;52.716;6.444;2023-05-23T01:06:51;25.45;;;16.77;;
60472;SDS011;46318;52.716;6.444;2023-05-23T01:09:19;25.35;;;16.65;;
60472;SDS011;46318;52.716;6.444;2023-05-23T01:11:57;20.48;;;14.90;;
60472;SDS011;46318;52.716;6.444;2023-05-23T01:20:45;21.23;;;14.73;;
60472;SDS011;46318;52.716;6.444;2023-05-23T01:29:59;15.60;;;11.75;;
60472;SDS011;46318;52.716;6.444;2023-05-23T01:32:21;16.75;;;11.82;;
60472;SDS011;46318;52.716;6.444;2023-05-23T01:34:51;19.27;;;13.38;;
60472;SDS011;46318;52.716;6.444;2023-05-23T01:37:18;17.40;;;14.15;;
60472;SDS011;46318;52.716;6.444;2023-05-23T01:39:44;17.35;;;12.60;;
60472;SDS011;46318;52.716;6.444;2023-05-23T01:42:11;20.02;;;14.57;;
60472;SDS011;46318;52.716;6.444;2023-05-23T01:44:37;17.23;;;13.82;;
60472;SDS011;46318;52.716;6.444;2023-05-23T01:47:07;23.00;;;15.20;;
60472;SDS011;46318;52.716;6.444;2023-05-23T01:49:34;18.33;;;14.20;;
60472;SDS011;46318;52.716;6.444;2023-05-23T01:52:02;18.63;;;14.13;;
60472;SDS011;46318;52.716;6.444;2023-05-23T01:54:33;19.50;;;14.18;;
60472;SDS011;46318;52.716;6.444;2023-05-23T01:57:01;18.40;;;13.70;;
60472;SDS011;46318;52.716;6.444;2023-05-23T01:59:27;22.05;;;14.27;;
60472;SDS011;46318;52.716;6.444;2023-05-23T02:01:53;18.77;;;13.45;;
60472;SDS011;46318;52.716;6.444;2023-05-23T02:04:20;17.77;;;13.50;;
60472;SDS011;46318;52.716;6.444;2023-05-23T02:06:46;20.30;;;13.25;;
60472;SDS011;46318;52.716;6.444;2023-05-23T02:09:11;19.92;;;14.15;;
60472;SDS011;46318;52.716;6.444;2023-05-23T02:11:38;20.60;;;13.95;;
60472;SDS011;46318;52.716;6.444;2023-05-23T02:14:04;19.80;;;13.43;;
60472;SDS011;46318;52.716;6.444;2023-05-23T02:16:29;20.42;;;12.77;;
60472;SDS011;46318;52.716;6.444;2023-05-23T02:18:57;19.52;;;13.35;;
60472;SDS011;46318;52.716;6.444;2023-05-23T02:21:23;20.08;;;13.32;;
60472;SDS011;46318;52.716;6.444;2023-05-23T02:23:49;20.05;;;13.32;;
60472;SDS011;46318;52.716;6.444;2023-05-23T02:26:15;22.60;;;13.43;;
60472;SDS011;46318;52.716;6.444;2023-05-23T02:28:41;25.60;;;14.30;;
60472;SDS011;46318;52.716;6.444;2023-05-23T02:31:07;23.05;;;14.35;;
60472;SDS011;46318;52.716;6.444;2023-05-23T02:33:33;20.00;;;13.63;;
60472;SDS011;46318;52.716;6.444;2023-05-23T02:35:59;26.00;;;13.82;;
60472;SDS011;46318;52.716;6.444;2023-05-23T02:38:26;24.58;;;14.63;;
60472;SDS011;46318;52.716;6.444;2023-05-23T02:40:52;19.83;;;13.93;;
60472;SDS011;46318;52.716;6.444;2023-05-23T02:43:20;24.10;;;14.27;;
60472;SDS011;46318;52.716;6.444;2023-05-23T02:45:46;27.38;;;15.40;;
60472;SDS011;46318;52.716;6.444;2023-05-23T02:48:12;23.92;;;14.35;;
60472;SDS011;46318;52.716;6.444;2023-05-23T02:50:38;20.38;;;13.93;;
60472;SDS011;46318;52.716;6.444;2023-05-23T02:53:03;24.23;;;14.23;;
60472;SDS011;46318;52.716;6.444;2023-05-23T02:55:29;24.80;;;13.38;;
60472;SDS011;46318;52.716;6.444;2023-05-23T02:57:56;22.88;;;13.85;;
60472;SDS011;46318;52.716;6.444;2023-05-23T03:00:23;25.10;;;14.48;;
60472;SDS011;46318;52.716;6.444;2023-05-23T03:02:49;23.00;;;13.70;;
60472;SDS011;46318;52.716;6.444;2023-05-23T03:05:15;25.63;;;13.63;;
60472;SDS011;46318;52.716;6.444;2023-05-23T03:07:41;24.35;;;13.35;;
60472;SDS011;46318;52.716;6.444;2023-05-23T03:10:08;23.88;;;13.35;;
60472;SDS011;46318;52.716;6.444;2023-05-23T03:12:34;19.55;;;12.90;;
60472;SDS011;46318;52.716;6.444;2023-05-23T03:15:01;21.75;;;13.90;;
60472;SDS011;46318;52.716;6.444;2023-05-23T03:17:27;25.65;;;13.60;;
60472;SDS011;46318;52.716;6.444;2023-05-23T03:19:53;21.40;;;11.93;;
60472;SDS011;46318;52.716;6.444;2023-05-23T03:22:18;25.05;;;11.98;;
60472;SDS011;46318;52.716;6.444;2023-05-23T03:24:44;23.05;;;11.55;;
60472;SDS011;46318;52.716;6.444;2023-05-23T03:27:10;20.88;;;11.93;;
60472;SDS011;46318;52.716;6.444;2023-05-23T03:29:36;24.70;;;12.65;;
60472;SDS011;46318;52.716;6.444;2023-05-23T03:32:02;21.08;;;11.70;;
60472;SDS011;46318;52.716;6.444;2023-05-23T03:34:28;20.60;;;11.52;;
60472;SDS011;46318;52.716;6.444;2023-05-23T03:36:54;21.65;;;11.85;;
60472;SDS011;46318;52.716;6.444;2023-05-23T03:39:20;23.17;;;12.23;;
60472;SDS011;46318;52.716;6.444;2023-05-23T03:41:47;20.58;;;10.88;;
60472;SDS011;46318;52.716;6.444;2023-05-23T03:44:12;22.67;;;12.45;;
60472;SDS011;46318;52.716;6.444;2023-05-23T03:46:38;20.80;;;11.55;;
60472;SDS011;46318;52.716;6.444;2023-05-23T03:49:04;25.15;;;10.88;;
60472;SDS011;46318;52.716;6.444;2023-05-23T03:51:30;19.15;;;10.88;;
60472;SDS011;46318;52.716;6.444;2023-05-23T03:53:56;20.27;;;11.05;;
60472;SDS011;46318;52.716;6.444;2023-05-23T03:56:21;16.38;;;9.88;;
60472;SDS011;46318;52.716;6.444;2023-05-23T03:58:47;23.00;;;10.88;;
60472;SDS011;46318;52.716;6.444;2023-05-23T04:01:13;18.35;;;9.70;;
60472;SDS011;46318;52.716;6.444;2023-05-23T04:03:39;21.10;;;10.57;;
60472;SDS011;46318;52.716;6.444;2023-05-23T04:06:05;16.65;;;10.27;;
60472;SDS011;46318;52.716;6.444;2023-05-23T04:08:31;22.52;;;11.25;;
60472;SDS011;46318;52.716;6.444;2023-05-23T04:11:00;21.73;;;10.35;;
60472;SDS011;46318;52.716;6.444;2023-05-23T04:13:26;22.40;;;10.65;;
60472;SDS011;46318;52.716;6.444;2023-05-23T04:15:52;19.85;;;10.15;;
60472;SDS011;46318;52.716;6.444;2023-05-23T04:18:21;21.52;;;10.15;;
60472;SDS011;46318;52.716;6.444;2023-05-23T04:20:48;20.20;;;9.80;;
60472;SDS011;46318;52.716;6.444;2023-05-23T04:23:13;19.52;;;9.70;;
60472;SDS011;46318;52.716;6.444;2023-05-23T04:25:40;18.38;;;9.55;;
60472;SDS011;46318;52.716;6.444;2023-05-23T04:28:05;20.90;;;10.10;;
60472;SDS011;46318;52.716;6.444;2023-05-23T04:30:34;17.60;;;9.23;;
60472;SDS011;46318;52.716;6.444;2023-05-23T04:33:00;16.25;;;8.00;;
60472;SDS011;46318;52.716;6.444;2023-05-23T04:35:26;18.75;;;7.75;;
60472;SDS011;46318;52.716;6.444;2023-05-23T04:37:58;16.70;;;7.40;;
60472;SDS011;46318;52.716;6.444;2023-05-23T04:40:24;17.85;;;7.68;;
60472;SDS011;46318;52.716;6.444;2023-05-23T04:42:49;16.98;;;7.95;;
60472;SDS011;46318;52.716;6.444;2023-05-23T04:45:16;14.57;;;6.82;;
60472;SDS011;46318;52.716;6.444;2023-05-23T04:47:43;18.25;;;7.38;;
60472;SDS011;46318;52.716;6.444;2023-05-23T04:50:10;15.18;;;7.18;;
60472;SDS011;46318;52.716;6.444;2023-05-23T04:52:36;15.77;;;7.65;;
60472;SDS011;46318;52.716;6.444;2023-05-23T04:55:02;17.15;;;7.22;;
60472;SDS011;46318;52.716;6.444;2023-05-23T04:57:29;14.63;;;6.97;;
60472;SDS011;46318;52.716;6.444;2023-05-23T04:59:54;11.82;;;6.68;;
60472;SDS011;46318;52.716;6.444;2023-05-23T05:02:21;10.15;;;7.18;;
60472;SDS011;46318;52.716;6.444;2023-05-23T05:04:47;12.45;;;7.07;;
60472;SDS011;46318;52.716;6.444;2023-05-23T05:07:13;12.75;;;7.03;;
60472;SDS011;46318;52.716;6.444;2023-05-23T05:09:39;10.90;;;6.65;;
60472;SDS011;46318;52.716;6.444;2023-05-23T05:12:05;16.00;;;7.10;;
60472;SDS011;46318;52.716;6.444;2023-05-23T05:14:30;13.18;;;7.60;;
60472;SDS011;46318;52.716;6.444;2023-05-23T05:16:56;14.35;;;7.78;;
60472;SDS011;46318;52.716;6.444;2023-05-23T05:19:22;16.83;;;7.72;;
60472;SDS011;46318;52.716;6.444;2023-05-23T05:21:48;16.13;;;7.65;;
60472;SDS011;46318;52.716;6.444;2023-05-23T05:24:15;16.08;;;8.15;;
60472;SDS011;46318;52.716;6.444;2023-05-23T05:26:41;17.90;;;8.10;;
60472;SDS011;46318;52.716;6.444;2023-05-23T05:29:07;20.27;;;8.60;;
60472;SDS011;46318;52.716;6.444;2023-05-23T05:31:32;13.23;;;7.13;;
60472;SDS011;46318;52.716;6.444;2023-05-23T05:33:59;17.75;;;7.93;;
60472;SDS011;46318;52.716;6.444;2023-05-23T05:36:25;16.20;;;7.82;;
60472;SDS011;46318;52.716;6.444;2023-05-23T05:38:51;20.27;;;8.15;;
60472;SDS011;46318;52.716;6.444;2023-05-23T05:41:17;15.40;;;7.85;;
60472;SDS011;46318;52.716;6.444;2023-05-23T05:43:43;18.50;;;7.18;;
60472;SDS011;46318;52.716;6.444;2023-05-23T05:46:09;15.23;;;6.78;;
60472;SDS011;46318;52.716;6.444;2023-05-23T05:48:36;15.52;;;7.20;;
60472;SDS011;46318;52.716;6.444;2023-05-23T05:51:01;15.00;;;7.22;;
60472;SDS011;46318;52.716;6.444;2023-05-23T05:53:27;13.93;;;6.40;;
60472;SDS011;46318;52.716;6.444;2023-05-23T05:55:53;16.17;;;7.20;;
60472;SDS011;46318;52.716;6.444;2023-05-23T05:58:20;12.95;;;6.85;;
60472;SDS011;46318;52.716;6.444;2023-05-23T06:00:46;13.25;;;6.47;;
60472;SDS011;46318;52.716;6.444;2023-05-23T06:03:13;14.57;;;6.43;;
60472;SDS011;46318;52.716;6.444;2023-05-23T06:05:39;14.43;;;6.72;;
60472;SDS011;46318;52.716;6.444;2023-05-23T06:08:06;11.88;;;6.97;;
60472;SDS011;46318;52.716;6.444;2023-05-23T06:10:32;14.35;;;6.55;;
60472;SDS011;46318;52.716;6.444;2023-05-23T06:12:58;13.93;;;6.22;;
60472;SDS011;46318;52.716;6.444;2023-05-23T06:15:24;12.50;;;6.85;;
60472;SDS011;46318;52.716;6.444;2023-05-23T06:17:50;10.85;;;5.90;;
60472;SDS011;46318;52.716;6.444;2023-05-23T06:20:16;13.60;;;6.00;;
60472;SDS011;46318;52.716;6.444;2023-05-23T06:22:42;13.75;;;6.25;;
60472;SDS011;46318;52.716;6.444;2023-05-23T06:25:08;11.85;;;6.00;;
60472;SDS011;46318;52.716;6.444;2023-05-23T06:27:34;10.90;;;6.43;;
60472;SDS011;46318;52.716;6.444;2023-05-23T06:30:02;12.48;;;6.25;;
60472;SDS011;46318;52.716;6.444;2023-05-23T06:32:29;16.90;;;6.65;;
60472;SDS011;46318;52.716;6.444;2023-05-23T06:34:55;16.30;;;6.38;;
60472;SDS011;46318;52.716;6.444;2023-05-23T06:37:21;13.23;;;6.10;;
60472;SDS011;46318;52.716;6.444;2023-05-23T06:39:47;13.10;;;7.30;;
60472;SDS011;46318;52.716;6.444;2023-05-23T06:42:13;13.38;;;6.70;;
60472;SDS011;46318;52.716;6.444;2023-05-23T06:44:40;12.60;;;6.22;;
60472;SDS011;46318;52.716;6.444;2023-05-23T06:47:06;12.50;;;6.55;;
60472;SDS011;46318;52.716;6.444;2023-05-23T06:49:31;10.43;;;5.55;;
60472;SDS011;46318;52.716;6.444;2023-05-23T06:51:57;16.08;;;6.45;;
60472;SDS011;46318;52.716;6.444;2023-05-23T06:54:23;7.60;;;5.03;;
60472;SDS011;46318;52.716;6.444;2023-05-23T06:56:49;11.32;;;5.13;;
60472;SDS011;46318;52.716;6.444;2023-05-23T06:59:15;9.82;;;4.72;;
60472;SDS011;46318;52.716;6.444;2023-05-23T07:01:41;7.93;;;4.47;;
60472;SDS011;46318;52.716;6.444;2023-05-23T07:04:07;10.05;;;5.10;;
60472;SDS011;46318;52.716;6.444;2023-05-23T07:06:33;15.98;;;5.80;;
60472;SDS011;46318;52.716;6.444;2023-05-23T07:09:00;11.63;;;5.07;;
60472;SDS011;46318;52.716;6.444;2023-05-23T07:11:26;11.93;;;5.03;;
60472;SDS011;46318;52.716;6.444;2023-05-23T07:13:52;10.68;;;4.80;;
60472;SDS011;46318;52.716;6.444;2023-05-23T07:16:17;12.43;;;5.05;;
60472;SDS011;46318;52.716;6.444;2023-05-23T07:18:43;9.32;;;4.30;;
60472;SDS011;46318;52.716;6.444;2023-05-23T07:21:09;11.10;;;4.32;;
60472;SDS011;46318;52.716;6.444;2023-05-23T07:23:35;14.50;;;4.53;;
60472;SDS011;46318;52.716;6.444;2023-05-23T07:26:01;10.50;;;4.57;;
60472;SDS011;46318;52.716;6.444;2023-05-23T07:28:27;12.77;;;4.35;;
60472;SDS011;46318;52.716;6.444;2023-05-23T07:30:53;14.05;;;4.72;;
60472;SDS011;46318;52.716;6.444;2023-05-23T07:33:22;12.70;;;4.78;;
60472;SDS011;46318;52.716;6.444;2023-05-23T07:35:48;15.63;;;4.55;;
60472;SDS011;46318;52.716;6.444;2023-05-23T07:38:14;14.32;;;4.47;;
60472;SDS011;46318;52.716;6.444;2023-05-23T07:40:40;16.55;;;4.57;;
60472;SDS011;46318;52.716;6.444;2023-05-23T07:43:06;13.52;;;4.57;;
60472;SDS011;46318;52.716;6.444;2023-05-23T07:45:32;13.43;;;4.30;;
60472;SDS011;46318;52.716;6.444;2023-05-23T07:47:58;15.45;;;4.70;;
60472;SDS011;46318;52.716;6.444;2023-05-23T07:50:23;17.95;;;4.72;;
60472;SDS011;46318;52.716;6.444;2023-05-23T07:52:51;15.75;;;4.82;;
60472;SDS011;46318;52.716;6.444;2023-05-23T07:55:17;14.65;;;4.97;;
60472;SDS011;46318;52.716;6.444;2023-05-23T07:57:43;13.15;;;3.92;;
60472;SDS011;46318;52.716;6.444;2023-05-23T08:00:09;13.10;;;4.05;;
60472;SDS011;46318;52.716;6.444;2023-05-23T08:02:36;13.23;;;4.18;;
60472;SDS011;46318;52.716;6.444;2023-05-23T08:05:02;12.27;;;5.15;;
60472;SDS011;46318;52.716;6.444;2023-05-23T08:07:28;15.77;;;4.78;;
60472;SDS011;46318;52.716;6.444;2023-05-23T08:09:54;17.70;;;4.75;;
60472;SDS011;46318;52.716;6.444;2023-05-23T08:12:20;15.73;;;4.78;;
60472;SDS011;46318;52.716;6.444;2023-05-23T08:14:46;14.82;;;5.30;;
60472;SDS011;46318;52.716;6.444;2023-05-23T08:17:11;17.20;;;4.38;;
60472;SDS011;46318;52.716;6.444;2023-05-23T08:19:37;17.63;;;4.57;;
60472;SDS011;46318;52.716;6.444;2023-05-23T08:22:03;18.98;;;4.40;;
60472;SDS011;46318;52.716;6.444;2023-05-23T08:24:29;17.30;;;4.93;;
60472;SDS011;46318;52.716;6.444;2023-05-23T08:26:55;18.10;;;4.47;;
60472;SDS011;46318;52.716;6.444;2023-05-23T08:29:21;17.63;;;4.35;;
60472;SDS011;46318;52.716;6.444;2023-05-23T08:31:47;12.88;;;4.13;;
60472;SDS011;46318;52.716;6.444;2023-05-23T08:34:13;14.90;;;4.00;;
60472;SDS011;46318;52.716;6.444;2023-05-23T08:36:39;19.20;;;4.50;;
60472;SDS011;46318;52.716;6.444;2023-05-23T08:39:07;16.52;;;4.88;;
60472;SDS011;46318;52.716;6.444;2023-05-23T08:41:33;17.08;;;4.70;;
60472;SDS011;46318;52.716;6.444;2023-05-23T08:43:59;14.77;;;4.10;;
60472;SDS011;46318;52.716;6.444;2023-05-23T08:46:25;17.33;;;4.25;;
60472;SDS011;46318;52.716;6.444;2023-05-23T08:48:54;14.27;;;3.88;;
60472;SDS011;46318;52.716;6.444;2023-05-23T08:51:23;16.10;;;4.85;;
60472;SDS011;46318;52.716;6.444;2023-05-23T08:53:52;20.63;;;4.90;;
60472;SDS011;46318;52.716;6.444;2023-05-23T08:56:20;17.75;;;4.55;;
60472;SDS011;46318;52.716;6.444;2023-05-23T08:58:49;18.85;;;4.28;;
60472;SDS011;46318;52.716;6.444;2023-05-23T09:01:17;12.32;;;4.32;;
60472;SDS011;46318;52.716;6.444;2023-05-23T09:03:44;12.82;;;4.13;;
60472;SDS011;46318;52.716;6.444;2023-05-23T09:06:11;16.50;;;4.40;;
60472;SDS011;46318;52.716;6.444;2023-05-23T09:08:37;15.02;;;4.03;;
60472;SDS011;46318;52.716;6.444;2023-05-23T09:11:03;18.98;;;4.88;;
60472;SDS011;46318;52.716;6.444;2023-05-23T09:13:31;15.13;;;4.30;;
60472;SDS011;46318;52.716;6.444;2023-05-23T09:18:45;16.25;;;4.25;;
60472;SDS011;46318;52.716;6.444;2023-05-23T09:21:11;11.45;;;4.35;;
60472;SDS011;46318;52.716;6.444;2023-05-23T09:23:38;13.82;;;4.80;;
60472;SDS011;46318;52.716;6.444;2023-05-23T09:26:08;16.90;;;5.03;;
60472;SDS011;46318;52.716;6.444;2023-05-23T09:28:37;15.05;;;4.45;;
60472;SDS011;46318;52.716;6.444;2023-05-23T09:31:06;14.77;;;4.40;;
60472;SDS011;46318;52.716;6.444;2023-05-23T09:36:11;15.75;;;4.80;;
60472;SDS011;46318;52.716;6.444;2023-05-23T09:38:37;9.82;;;3.63;;
60472;SDS011;46318;52.716;6.444;2023-05-23T09:41:04;18.58;;;4.50;;
60472;SDS011;46318;52.716;6.444;2023-05-23T09:43:31;12.82;;;4.25;;
60472;SDS011;46318;52.716;6.444;2023-05-23T09:46:03;10.55;;;4.05;;
60472;SDS011;46318;52.716;6.444;2023-05-23T09:48:33;8.13;;;3.72;;
60472;SDS011;46318;52.716;6.444;2023-05-23T09:51:03;13.27;;;4.13;;
60472;SDS011;46318;52.716;6.444;2023-05-23T09:53:30;13.48;;;4.40;;
60472;SDS011;46318;52.716;6.444;2023-05-23T09:55:57;14.02;;;4.30;;
60472;SDS011;46318;52.716;6.444;2023-05-23T09:58:25;11.75;;;4.20;;
60472;SDS011;46318;52.716;6.444;2023-05-23T10:01:00;13.98;;;4.43;;
60472;SDS011;46318;52.716;6.444;2023-05-23T10:03:33;14.52;;;3.97;;
60472;SDS011;46318;52.716;6.444;2023-05-23T10:06:10;11.95;;;4.07;;
60472;SDS011;46318;52.716;6.444;2023-05-23T10:14:06;13.68;;;3.90;;
60472;SDS011;46318;52.716;6.444;2023-05-23T10:21:58;10.57;;;3.28;;
60472;SDS011;46318;52.716;6.444;2023-05-23T10:26:55;14.32;;;3.72;;
60472;SDS011;46318;52.716;6.444;2023-05-23T10:29:23;11.93;;;3.75;;
60472;SDS011;46318;52.716;6.444;2023-05-23T10:31:50;15.70;;;3.63;;
60472;SDS011;46318;52.716;6.444;2023-05-23T10:37:07;11.35;;;3.42;;
60472;SDS011;46318;52.716;6.444;2023-05-23T10:40:06;14.90;;;3.75;;
60472;SDS011;46318;52.716;6.444;2023-05-23T10:45:20;13.35;;;3.40;;
60472;SDS011;46318;52.716;6.444;2023-05-23T10:47:49;10.55;;;3.58;;
60472;SDS011;46318;52.716;6.444;2023-05-23T10:50:30;11.90;;;4.00;;
60472;SDS011;46318;52.716;6.444;2023-05-23T10:53:02;12.02;;;3.58;;
60472;SDS011;46318;52.716;6.444;2023-05-23T11:00:51;9.70;;;3.20;;
60472;SDS011;46318;52.716;6.444;2023-05-23T11:06:32;12.07;;;3.63;;
60472;SDS011;46318;52.716;6.444;2023-05-23T11:09:04;11.87;;;4.57;;
60472;SDS011;46318;52.716;6.444;2023-05-23T11:14:50;11.02;;;3.00;;
60472;SDS011;46318;52.716;6.444;2023-05-23T11:17:23;9.93;;;2.90;;
60472;SDS011;46318;52.716;6.444;2023-05-23T11:20:01;13.40;;;3.85;;
60472;SDS011;46318;52.716;6.444;2023-05-23T11:22:31;11.35;;;4.00;;
60472;SDS011;46318;52.716;6.444;2023-05-23T11:25:01;11.80;;;3.58;;
60472;SDS011;46318;52.716;6.444;2023-05-23T11:27:34;8.82;;;3.05;;
60472;SDS011;46318;52.716;6.444;2023-05-23T11:32:37;12.23;;;3.10;;
60472;SDS011;46318;52.716;6.444;2023-05-23T11:35:07;11.30;;;3.65;;
60472;SDS011;46318;52.716;6.444;2023-05-23T11:37:35;11.00;;;3.25;;
60472;SDS011;46318;52.716;6.444;2023-05-23T11:43:03;12.73;;;3.30;;
60472;SDS011;46318;52.716;6.444;2023-05-23T11:45:35;10.02;;;3.08;;
60472;SDS011;46318;52.716;6.444;2023-05-23T11:48:03;8.70;;;2.80;;
60472;SDS011;46318;52.716;6.444;2023-05-23T11:50:49;10.52;;;3.20;;
60472;SDS011;46318;52.716;6.444;2023-05-23T11:53:18;10.93;;;3.38;;
60472;SDS011;46318;52.716;6.444;2023-05-23T11:55:56;10.80;;;3.17;;
60472;SDS011;46318;52.716;6.444;2023-05-23T11:58:31;11.05;;;2.97;;
60472;SDS011;46318;52.716;6.444;2023-05-23T12:01:05;10.15;;;3.30;;
60472;SDS011;46318;52.716;6.444;2023-05-23T12:03:45;10.45;;;3.47;;
60472;SDS011;46318;52.716;6.444;2023-05-23T12:06:23;11.20;;;3.30;;
60472;SDS011;46318;52.716;6.444;2023-05-23T12:08:52;10.30;;;3.47;;
60472;SDS011;46318;52.716;6.444;2023-05-23T12:11:18;8.70;;;3.10;;
60472;SDS011;46318;52.716;6.444;2023-05-23T12:13:44;14.10;;;3.90;;
60472;SDS011;46318;52.716;6.444;2023-05-23T12:16:12;11.43;;;3.63;;
60472;SDS011;46318;52.716;6.444;2023-05-23T12:18:41;10.85;;;3.83;;
60472;SDS011;46318;52.716;6.444;2023-05-23T12:21:07;10.90;;;3.70;;
60472;SDS011;46318;52.716;6.444;2023-05-23T12:23:33;11.13;;;3.40;;
60472;SDS011;46318;52.716;6.444;2023-05-23T12:26:00;9.27;;;2.83;;
60472;SDS011;46318;52.716;6.444;2023-05-23T12:28:36;8.73;;;2.80;;
60472;SDS011;46318;52.716;6.444;2023-05-23T12:31:09;8.88;;;2.58;;
60472;SDS011;46318;52.716;6.444;2023-05-23T12:33:51;7.35;;;2.65;;
60472;SDS011;46318;52.716;6.444;2023-05-23T12:36:22;7.97;;;3.28;;
60472;SDS011;46318;52.716;6.444;2023-05-23T12:38:50;10.98;;;3.75;;
60472;SDS011;46318;52.716;6.444;2023-05-23T12:41:16;8.57;;;2.75;;
60472;SDS011;46318;52.716;6.444;2023-05-23T12:43:50;8.68;;;3.28;;
60472;SDS011;46318;52.716;6.444;2023-05-23T12:46:19;10.02;;;3.33;;
60472;SDS011;46318;52.716;6.444;2023-05-23T12:48:45;8.30;;;3.45;;
60472;SDS011;46318;52.716;6.444;2023-05-23T12:51:12;10.65;;;3.67;;
60472;SDS011;46318;52.716;6.444;2023-05-23T12:53:38;10.45;;;3.35;;
60472;SDS011;46318;52.716;6.444;2023-05-23T12:56:05;9.50;;;2.85;;
60472;SDS011;46318;52.716;6.444;2023-05-23T12:58:31;7.07;;;2.67;;
60472;SDS011;46318;52.716;6.444;2023-05-23T13:00:58;10.43;;;3.00;;
60472;SDS011;46318;52.716;6.444;2023-05-23T13:03:24;6.88;;;2.58;;
60472;SDS011;46318;52.716;6.444;2023-05-23T13:05:50;6.85;;;2.47;;
60472;SDS011;46318;52.716;6.444;2023-05-23T13:08:18;9.05;;;2.83;;
60472;SDS011;46318;52.716;6.444;2023-05-23T13:10:44;8.65;;;2.70;;
60472;SDS011;46318;52.716;6.444;2023-05-23T13:13:10;12.40;;;2.72;;
60472;SDS011;46318;52.716;6.444;2023-05-23T13:15:36;9.32;;;2.95;;
60472;SDS011;46318;52.716;6.444;2023-05-23T13:18:02;7.35;;;2.80;;
60472;SDS011;46318;52.716;6.444;2023-05-23T13:20:30;9.00;;;3.00;;
60472;SDS011;46318;52.716;6.444;2023-05-23T13:22:56;5.95;;;2.50;;
60472;SDS011;46318;52.716;6.444;2023-05-23T13:25:23;6.00;;;2.63;;
60472;SDS011;46318;52.716;6.444;2023-05-23T13:27:50;7.28;;;2.53;;
60472;SDS011;46318;52.716;6.444;2023-05-23T13:30:18;8.60;;;2.65;;
60472;SDS011;46318;52.716;6.444;2023-05-23T13:32:45;7.20;;;2.58;;
60472;SDS011;46318;52.716;6.444;2023-05-23T13:35:11;7.13;;;2.88;;
60472;SDS011;46318;52.716;6.444;2023-05-23T13:37:37;7.95;;;2.67;;
60472;SDS011;46318;52.716;6.444;2023-05-23T13:40:03;9.75;;;3.15;;
60472;SDS011;46318;52.716;6.444;2023-05-23T13:42:30;8.88;;;2.78;;
60472;SDS011;46318;52.716;6.444;2023-05-23T13:44:57;9.68;;;3.13;;
60472;SDS011;46318;52.716;6.444;2023-05-23T13:47:23;10.52;;;3.05;;
60472;SDS011;46318;52.716;6.444;2023-05-23T13:49:49;9.05;;;2.63;;
60472;SDS011;46318;52.716;6.444;2023-05-23T13:52:15;7.75;;;2.72;;
60472;SDS011;46318;52.716;6.444;2023-05-23T13:54:41;11.45;;;3.15;;
60472;SDS011;46318;52.716;6.444;2023-05-23T13:57:07;6.82;;;2.53;;
60472;SDS011;46318;52.716;6.444;2023-05-23T13:59:33;8.98;;;2.88;;
60472;SDS011;46318;52.716;6.444;2023-05-23T14:01:59;6.88;;;2.35;;
60472;SDS011;46318;52.716;6.444;2023-05-23T14:04:25;8.35;;;2.70;;
60472;SDS011;46318;52.716;6.444;2023-05-23T14:06:51;5.72;;;2.53;;
60472;SDS011;46318;52.716;6.444;2023-05-23T14:09:17;8.23;;;2.65;;
60472;SDS011;46318;52.716;6.444;2023-05-23T14:11:44;5.07;;;2.20;;
60472;SDS011;46318;52.716;6.444;2023-05-23T14:14:11;5.25;;;2.15;;
60472;SDS011;46318;52.716;6.444;2023-05-23T14:16:37;6.82;;;2.38;;
60472;SDS011;46318;52.716;6.444;2023-05-23T14:19:03;7.18;;;2.45;;
60472;SDS011;46318;52.716;6.444;2023-05-23T14:21:29;5.93;;;2.35;;
60472;SDS011;46318;52.716;6.444;2023-05-23T14:23:56;7.30;;;2.50;;
60472;SDS011;46318;52.716;6.444;2023-05-23T14:26:22;6.70;;;2.20;;
60472;SDS011;46318;52.716;6.444;2023-05-23T14:28:48;6.05;;;2.47;;
60472;SDS011;46318;52.716;6.444;2023-05-23T14:31:14;9.82;;;2.60;;
60472;SDS011;46318;52.716;6.444;2023-05-23T14:33:40;8.93;;;2.63;;
60472;SDS011;46318;52.716;6.444;2023-05-23T14:36:06;10.13;;;2.60;;
60472;SDS011;46318;52.716;6.444;2023-05-23T14:38:33;7.82;;;2.75;;
60472;SDS011;46318;52.716;6.444;2023-05-23T14:40:58;8.88;;;2.58;;
60472;SDS011;46318;52.716;6.444;2023-05-23T14:43:24;5.43;;;2.20;;
60472;SDS011;46318;52.716;6.444;2023-05-23T14:45:51;10.23;;;2.97;;
60472;SDS011;46318;52.716;6.444;2023-05-23T14:48:16;9.23;;;2.55;;
60472;SDS011;46318;52.716;6.444;2023-05-23T14:50:43;9.45;;;2.75;;
60472;SDS011;46318;52.716;6.444;2023-05-23T14:53:09;10.48;;;2.97;;
60472;SDS011;46318;52.716;6.444;2023-05-23T14:55:35;8.10;;;2.88;;
60472;SDS011;46318;52.716;6.444;2023-05-23T14:58:01;7.32;;;2.45;;
60472;SDS011;46318;52.716;6.444;2023-05-23T15:00:27;8.23;;;2.30;;
60472;SDS011;46318;52.716;6.444;2023-05-23T15:02:53;8.50;;;2.65;;
60472;SDS011;46318;52.716;6.444;2023-05-23T15:05:20;7.60;;;2.50;;
60472;SDS011;46318;52.716;6.444;2023-05-23T15:07:49;9.27;;;3.17;;
60472;SDS011;46318;52.716;6.444;2023-05-23T15:10:15;11.00;;;3.20;;
60472;SDS011;46318;52.716;6.444;2023-05-23T15:12:41;7.63;;;2.50;;
60472;SDS011;46318;52.716;6.444;2023-05-23T15:15:08;8.20;;;2.70;;
60472;SDS011;46318;52.716;6.444;2023-05-23T15:17:34;9.68;;;2.90;;
60472;SDS011;46318;52.716;6.444;2023-05-23T15:20:01;7.82;;;3.00;;
60472;SDS011;46318;52.716;6.444;2023-05-23T15:22:28;7.63;;;2.45;;
60472;SDS011;46318;52.716;6.444;2023-05-23T15:24:54;7.63;;;2.80;;
60472;SDS011;46318;52.716;6.444;2023-05-23T15:27:24;11.27;;;2.78;;